sensor_id;sensor_type;location;lat;lon;timestamp;P1;durP1;ratioP1;P2;durP2;ratioP2
8665;SDS011;4370;48.916;8.380;2023-03-23T00:00:59;1.73;;;1.33;;
8665;SDS011;4370;48.916;8.380;2023-03-23T00:03:25;1.20;;;1.10;;
8665;SDS011;4370;48.916;8.380;2023-03-23T00:05:53;1.30;;;1.20;;
8665;SDS011;4370;48.916;8.380;2023-03-23T00:08:27;1.57;;;1.27;;
8665;SDS011;4370;48.916;8.380;2023-03-23T00:10:53;3.67;;;1.40;;
8665;SDS011;4370;48.916;8.380;2023-03-23T00:13:22;2.57;;;1.30;;
8665;SDS011;4370;48.916;8.380;2023-03-23T00:15:51;2.03;;;1.33;;
8665;SDS011;4370;48.916;8.380;2023-03-23T00:18:17;2.03;;;1.50;;
8665;SDS011;4370;48.916;8.380;2023-03-23T00:20:53;1.50;;;1.40;;
8665;SDS011;4370;48.916;8.380;2023-03-23T00:23:20;3.37;;;1.40;;
8665;SDS011;4370;48.916;8.380;2023-03-23T00:25:54;1.60;;;1.40;;
8665;SDS011;4370;48.916;8.380;2023-03-23T00:28:21;2.53;;;1.37;;
8665;SDS011;4370;48.916;8.380;2023-03-23T00:30:53;1.40;;;1.30;;
8665;SDS011;4370;48.916;8.380;2023-03-23T00:33:21;2.77;;;1.53;;
8665;SDS011;4370;48.916;8.380;2023-03-23T00:35:48;3.20;;;1.27;;
8665;SDS011;4370;48.916;8.380;2023-03-23T00:38:17;2.60;;;1.27;;
8665;SDS011;4370;48.916;8.380;2023-03-23T00:40:44;1.53;;;1.33;;
8665;SDS011;4370;48.916;8.380;2023-03-23T00:43:12;2.37;;;1.40;;
8665;SDS011;4370;48.916;8.380;2023-03-23T00:45:38;1.87;;;1.30;;
8665;SDS011;4370;48.916;8.380;2023-03-23T00:48:04;3.60;;;1.40;;
8665;SDS011;4370;48.916;8.380;2023-03-23T00:50:30;2.47;;;1.40;;
8665;SDS011;4370;48.916;8.380;2023-03-23T00:52:56;1.93;;;1.50;;
8665;SDS011;4370;48.916;8.380;2023-03-23T00:55:23;2.50;;;1.40;;
8665;SDS011;4370;48.916;8.380;2023-03-23T00:57:49;1.50;;;1.40;;
8665;SDS011;4370;48.916;8.380;2023-03-23T01:00:16;1.40;;;1.30;;
8665;SDS011;4370;48.916;8.380;2023-03-23T01:02:42;2.60;;;1.70;;
8665;SDS011;4370;48.916;8.380;2023-03-23T01:05:09;1.40;;;1.30;;
8665;SDS011;4370;48.916;8.380;2023-03-23T01:07:35;1.20;;;1.10;;
8665;SDS011;4370;48.916;8.380;2023-03-23T01:10:01;1.60;;;1.40;;
8665;SDS011;4370;48.916;8.380;2023-03-23T01:12:27;2.60;;;1.40;;
8665;SDS011;4370;48.916;8.380;2023-03-23T01:14:53;2.17;;;1.40;;
8665;SDS011;4370;48.916;8.380;2023-03-23T01:17:19;1.53;;;1.33;;
8665;SDS011;4370;48.916;8.380;2023-03-23T01:19:46;2.70;;;1.60;;
8665;SDS011;4370;48.916;8.380;2023-03-23T01:22:11;1.40;;;1.30;;
8665;SDS011;4370;48.916;8.380;2023-03-23T01:24:38;2.33;;;1.37;;
8665;SDS011;4370;48.916;8.380;2023-03-23T01:27:04;1.93;;;1.50;;
8665;SDS011;4370;48.916;8.380;2023-03-23T01:29:34;1.90;;;1.50;;
8665;SDS011;4370;48.916;8.380;2023-03-23T01:32:00;2.03;;;1.67;;
8665;SDS011;4370;48.916;8.380;2023-03-23T01:34:27;1.87;;;1.57;;
8665;SDS011;4370;48.916;8.380;2023-03-23T01:36:53;2.07;;;1.50;;
8665;SDS011;4370;48.916;8.380;2023-03-23T01:39:19;3.23;;;1.60;;
8665;SDS011;4370;48.916;8.380;2023-03-23T01:41:45;1.50;;;1.40;;
8665;SDS011;4370;48.916;8.380;2023-03-23T01:46:43;2.03;;;1.50;;
8665;SDS011;4370;48.916;8.380;2023-03-23T01:49:10;1.40;;;1.30;;
8665;SDS011;4370;48.916;8.380;2023-03-23T01:51:50;2.47;;;1.77;;
8665;SDS011;4370;48.916;8.380;2023-03-23T01:54:21;2.37;;;1.40;;
8665;SDS011;4370;48.916;8.380;2023-03-23T01:56:50;1.80;;;1.57;;
8665;SDS011;4370;48.916;8.380;2023-03-23T01:59:20;1.57;;;1.30;;
8665;SDS011;4370;48.916;8.380;2023-03-23T02:01:47;1.93;;;1.50;;
8665;SDS011;4370;48.916;8.380;2023-03-23T02:04:14;1.87;;;1.33;;
8665;SDS011;4370;48.916;8.380;2023-03-23T02:06:41;1.70;;;1.37;;
8665;SDS011;4370;48.916;8.380;2023-03-23T02:09:09;2.03;;;1.60;;
8665;SDS011;4370;48.916;8.380;2023-03-23T02:11:35;2.90;;;1.30;;
8665;SDS011;4370;48.916;8.380;2023-03-23T02:14:01;1.33;;;1.23;;
8665;SDS011;4370;48.916;8.380;2023-03-23T02:16:40;1.43;;;1.27;;
8665;SDS011;4370;48.916;8.380;2023-03-23T02:19:31;1.30;;;1.20;;
8665;SDS011;4370;48.916;8.380;2023-03-23T02:38:50;1.80;;;1.37;;
8665;SDS011;4370;48.916;8.380;2023-03-23T02:41:31;3.50;;;1.50;;
8665;SDS011;4370;48.916;8.380;2023-03-23T02:44:04;2.70;;;1.40;;
8665;SDS011;4370;48.916;8.380;2023-03-23T02:46:30;1.33;;;1.23;;
8665;SDS011;4370;48.916;8.380;2023-03-23T02:48:57;3.07;;;1.33;;
8665;SDS011;4370;48.916;8.380;2023-03-23T02:51:25;3.10;;;1.50;;
8665;SDS011;4370;48.916;8.380;2023-03-23T02:53:53;3.50;;;1.60;;
8665;SDS011;4370;48.916;8.380;2023-03-23T02:56:21;1.20;;;1.10;;
8665;SDS011;4370;48.916;8.380;2023-03-23T02:58:48;1.43;;;1.30;;
8665;SDS011;4370;48.916;8.380;2023-03-23T03:03:53;1.77;;;1.50;;
8665;SDS011;4370;48.916;8.380;2023-03-23T03:06:36;2.10;;;1.40;;
8665;SDS011;4370;48.916;8.380;2023-03-23T03:09:07;1.50;;;1.13;;
8665;SDS011;4370;48.916;8.380;2023-03-23T03:11:34;3.47;;;1.60;;
8665;SDS011;4370;48.916;8.380;2023-03-23T03:14:09;1.60;;;1.50;;
8665;SDS011;4370;48.916;8.380;2023-03-23T03:16:50;2.27;;;1.60;;
8665;SDS011;4370;48.916;8.380;2023-03-23T03:19:26;2.03;;;1.40;;
8665;SDS011;4370;48.916;8.380;2023-03-23T03:21:56;1.73;;;1.60;;
8665;SDS011;4370;48.916;8.380;2023-03-23T03:24:23;1.70;;;1.40;;
8665;SDS011;4370;48.916;8.380;2023-03-23T03:26:52;3.83;;;1.43;;
8665;SDS011;4370;48.916;8.380;2023-03-23T03:29:30;1.43;;;1.30;;
8665;SDS011;4370;48.916;8.380;2023-03-23T03:31:59;1.80;;;1.30;;
8665;SDS011;4370;48.916;8.380;2023-03-23T03:34:29;1.63;;;1.43;;
8665;SDS011;4370;48.916;8.380;2023-03-23T03:36:56;1.40;;;1.27;;
8665;SDS011;4370;48.916;8.380;2023-03-23T03:39:23;1.87;;;1.40;;
8665;SDS011;4370;48.916;8.380;2023-03-23T03:41:49;1.80;;;1.47;;
8665;SDS011;4370;48.916;8.380;2023-03-23T03:44:15;3.17;;;1.50;;
8665;SDS011;4370;48.916;8.380;2023-03-23T03:46:41;2.60;;;1.60;;
8665;SDS011;4370;48.916;8.380;2023-03-23T03:49:08;1.87;;;1.43;;
8665;SDS011;4370;48.916;8.380;2023-03-23T03:51:36;2.97;;;1.97;;
8665;SDS011;4370;48.916;8.380;2023-03-23T03:54:02;2.30;;;1.70;;
8665;SDS011;4370;48.916;8.380;2023-03-23T03:56:28;4.07;;;1.90;;
8665;SDS011;4370;48.916;8.380;2023-03-23T03:58:57;2.33;;;1.77;;
8665;SDS011;4370;48.916;8.380;2023-03-23T04:01:24;2.03;;;1.60;;
8665;SDS011;4370;48.916;8.380;2023-03-23T04:03:50;2.20;;;1.50;;
8665;SDS011;4370;48.916;8.380;2023-03-23T04:06:16;1.97;;;1.60;;
8665;SDS011;4370;48.916;8.380;2023-03-23T04:08:42;2.90;;;1.70;;
8665;SDS011;4370;48.916;8.380;2023-03-23T04:11:10;2.07;;;1.40;;
8665;SDS011;4370;48.916;8.380;2023-03-23T04:13:37;2.07;;;1.47;;
8665;SDS011;4370;48.916;8.380;2023-03-23T04:16:03;2.83;;;1.80;;
8665;SDS011;4370;48.916;8.380;2023-03-23T04:18:29;3.00;;;1.90;;
8665;SDS011;4370;48.916;8.380;2023-03-23T04:20:57;1.93;;;1.50;;
8665;SDS011;4370;48.916;8.380;2023-03-23T04:23:24;2.37;;;1.50;;
8665;SDS011;4370;48.916;8.380;2023-03-23T04:25:51;4.37;;;1.80;;
8665;SDS011;4370;48.916;8.380;2023-03-23T04:28:18;1.97;;;1.67;;
8665;SDS011;4370;48.916;8.380;2023-03-23T04:30:51;2.67;;;1.57;;
8665;SDS011;4370;48.916;8.380;2023-03-23T04:33:19;1.90;;;1.60;;
8665;SDS011;4370;48.916;8.380;2023-03-23T04:35:46;1.70;;;1.40;;
8665;SDS011;4370;48.916;8.380;2023-03-23T04:38:12;4.07;;;1.83;;
8665;SDS011;4370;48.916;8.380;2023-03-23T04:40:40;2.07;;;1.50;;
8665;SDS011;4370;48.916;8.380;2023-03-23T04:43:07;2.10;;;1.57;;
8665;SDS011;4370;48.916;8.380;2023-03-23T04:45:34;1.63;;;1.53;;
8665;SDS011;4370;48.916;8.380;2023-03-23T04:48:02;1.90;;;1.57;;
8665;SDS011;4370;48.916;8.380;2023-03-23T04:50:30;1.70;;;1.43;;
8665;SDS011;4370;48.916;8.380;2023-03-23T04:52:57;2.87;;;2.00;;
8665;SDS011;4370;48.916;8.380;2023-03-23T04:55:28;2.20;;;1.80;;
8665;SDS011;4370;48.916;8.380;2023-03-23T04:57:59;1.90;;;1.60;;
8665;SDS011;4370;48.916;8.380;2023-03-23T05:00:26;2.70;;;1.90;;
8665;SDS011;4370;48.916;8.380;2023-03-23T05:02:52;3.80;;;1.83;;
8665;SDS011;4370;48.916;8.380;2023-03-23T05:05:20;3.43;;;1.90;;
8665;SDS011;4370;48.916;8.380;2023-03-23T05:07:46;3.10;;;1.80;;
8665;SDS011;4370;48.916;8.380;2023-03-23T05:10:13;2.83;;;1.73;;
8665;SDS011;4370;48.916;8.380;2023-03-23T05:12:40;2.97;;;1.83;;
8665;SDS011;4370;48.916;8.380;2023-03-23T05:15:06;2.47;;;1.70;;
8665;SDS011;4370;48.916;8.380;2023-03-23T05:17:32;2.73;;;1.77;;
8665;SDS011;4370;48.916;8.380;2023-03-23T05:19:58;2.93;;;1.80;;
8665;SDS011;4370;48.916;8.380;2023-03-23T05:22:27;3.17;;;1.77;;
8665;SDS011;4370;48.916;8.380;2023-03-23T05:24:53;3.50;;;1.80;;
8665;SDS011;4370;48.916;8.380;2023-03-23T05:27:19;2.57;;;1.73;;
8665;SDS011;4370;48.916;8.380;2023-03-23T05:29:46;2.23;;;1.70;;
8665;SDS011;4370;48.916;8.380;2023-03-23T05:32:13;2.13;;;1.70;;
8665;SDS011;4370;48.916;8.380;2023-03-23T05:34:39;3.80;;;1.80;;
8665;SDS011;4370;48.916;8.380;2023-03-23T05:37:06;1.83;;;1.70;;
8665;SDS011;4370;48.916;8.380;2023-03-23T05:39:32;2.40;;;1.80;;
8665;SDS011;4370;48.916;8.380;2023-03-23T05:41:59;2.40;;;1.60;;
8665;SDS011;4370;48.916;8.380;2023-03-23T05:44:24;1.80;;;1.70;;
8665;SDS011;4370;48.916;8.380;2023-03-23T05:46:51;3.97;;;1.83;;
8665;SDS011;4370;48.916;8.380;2023-03-23T05:49:17;3.47;;;1.90;;
8665;SDS011;4370;48.916;8.380;2023-03-23T05:51:44;1.90;;;1.70;;
8665;SDS011;4370;48.916;8.380;2023-03-23T05:54:10;1.87;;;1.73;;
8665;SDS011;4370;48.916;8.380;2023-03-23T05:56:36;1.90;;;1.80;;
8665;SDS011;4370;48.916;8.380;2023-03-23T05:59:02;2.87;;;1.90;;
8665;SDS011;4370;48.916;8.380;2023-03-23T06:01:28;1.90;;;1.70;;
8665;SDS011;4370;48.916;8.380;2023-03-23T06:03:54;3.20;;;1.70;;
8665;SDS011;4370;48.916;8.380;2023-03-23T06:06:23;2.87;;;1.93;;
8665;SDS011;4370;48.916;8.380;2023-03-23T06:08:53;2.20;;;1.83;;
8665;SDS011;4370;48.916;8.380;2023-03-23T06:11:19;3.50;;;1.90;;
8665;SDS011;4370;48.916;8.380;2023-03-23T06:13:45;5.30;;;1.90;;
8665;SDS011;4370;48.916;8.380;2023-03-23T06:16:10;2.53;;;2.03;;
8665;SDS011;4370;48.916;8.380;2023-03-23T06:18:36;3.33;;;2.20;;
8665;SDS011;4370;48.916;8.380;2023-03-23T06:21:05;3.27;;;2.00;;
8665;SDS011;4370;48.916;8.380;2023-03-23T06:23:31;3.73;;;2.07;;
8665;SDS011;4370;48.916;8.380;2023-03-23T06:25:58;2.73;;;2.00;;
8665;SDS011;4370;48.916;8.380;2023-03-23T06:28:26;5.13;;;2.30;;
8665;SDS011;4370;48.916;8.380;2023-03-23T06:30:52;3.30;;;2.10;;
8665;SDS011;4370;48.916;8.380;2023-03-23T06:33:18;2.53;;;2.07;;
8665;SDS011;4370;48.916;8.380;2023-03-23T06:35:44;3.20;;;2.10;;
8665;SDS011;4370;48.916;8.380;2023-03-23T06:38:10;2.53;;;2.00;;
8665;SDS011;4370;48.916;8.380;2023-03-23T06:40:37;2.57;;;1.73;;
8665;SDS011;4370;48.916;8.380;2023-03-23T06:43:03;3.10;;;2.10;;
8665;SDS011;4370;48.916;8.380;2023-03-23T06:45:29;2.50;;;2.00;;
8665;SDS011;4370;48.916;8.380;2023-03-23T06:47:55;2.50;;;1.80;;
8665;SDS011;4370;48.916;8.380;2023-03-23T06:50:21;5.53;;;2.47;;
8665;SDS011;4370;48.916;8.380;2023-03-23T06:52:47;2.20;;;1.90;;
8665;SDS011;4370;48.916;8.380;2023-03-23T06:55:14;2.27;;;1.83;;
8665;SDS011;4370;48.916;8.380;2023-03-23T06:57:40;3.73;;;2.10;;
8665;SDS011;4370;48.916;8.380;2023-03-23T07:00:07;3.07;;;2.30;;
8665;SDS011;4370;48.916;8.380;2023-03-23T07:02:39;4.53;;;2.20;;
8665;SDS011;4370;48.916;8.380;2023-03-23T07:05:05;3.43;;;2.10;;
8665;SDS011;4370;48.916;8.380;2023-03-23T07:07:32;5.37;;;2.37;;
8665;SDS011;4370;48.916;8.380;2023-03-23T07:09:58;2.93;;;2.37;;
8665;SDS011;4370;48.916;8.380;2023-03-23T07:12:23;3.07;;;2.20;;
8665;SDS011;4370;48.916;8.380;2023-03-23T07:14:49;3.10;;;2.20;;
8665;SDS011;4370;48.916;8.380;2023-03-23T07:17:15;3.30;;;2.40;;
8665;SDS011;4370;48.916;8.380;2023-03-23T07:19:41;4.37;;;2.30;;
8665;SDS011;4370;48.916;8.380;2023-03-23T07:22:07;3.90;;;2.33;;
8665;SDS011;4370;48.916;8.380;2023-03-23T07:24:33;3.23;;;2.17;;
8665;SDS011;4370;48.916;8.380;2023-03-23T07:26:59;4.33;;;2.27;;
8665;SDS011;4370;48.916;8.380;2023-03-23T07:29:26;4.20;;;2.40;;
8665;SDS011;4370;48.916;8.380;2023-03-23T07:31:53;3.50;;;2.37;;
8665;SDS011;4370;48.916;8.380;2023-03-23T07:34:19;4.17;;;2.40;;
8665;SDS011;4370;48.916;8.380;2023-03-23T07:36:45;3.17;;;2.10;;
8665;SDS011;4370;48.916;8.380;2023-03-23T07:39:11;5.10;;;2.60;;
8665;SDS011;4370;48.916;8.380;2023-03-23T07:41:38;2.93;;;2.20;;
8665;SDS011;4370;48.916;8.380;2023-03-23T07:44:04;3.87;;;2.60;;
8665;SDS011;4370;48.916;8.380;2023-03-23T07:46:30;3.10;;;2.43;;
8665;SDS011;4370;48.916;8.380;2023-03-23T07:48:56;3.10;;;2.27;;
8665;SDS011;4370;48.916;8.380;2023-03-23T07:51:22;3.33;;;2.37;;
8665;SDS011;4370;48.916;8.380;2023-03-23T07:53:49;3.13;;;2.23;;
8665;SDS011;4370;48.916;8.380;2023-03-23T07:56:15;2.53;;;2.10;;
8665;SDS011;4370;48.916;8.380;2023-03-23T07:58:43;3.27;;;2.10;;
8665;SDS011;4370;48.916;8.380;2023-03-23T08:01:09;3.03;;;2.00;;
8665;SDS011;4370;48.916;8.380;2023-03-23T08:03:35;3.40;;;2.20;;
8665;SDS011;4370;48.916;8.380;2023-03-23T08:06:02;2.10;;;1.90;;
8665;SDS011;4370;48.916;8.380;2023-03-23T08:08:28;4.20;;;2.27;;
8665;SDS011;4370;48.916;8.380;2023-03-23T08:10:55;2.77;;;2.40;;
8665;SDS011;4370;48.916;8.380;2023-03-23T08:13:20;2.93;;;2.20;;
8665;SDS011;4370;48.916;8.380;2023-03-23T08:15:46;3.27;;;2.10;;
8665;SDS011;4370;48.916;8.380;2023-03-23T08:18:12;4.30;;;2.37;;
8665;SDS011;4370;48.916;8.380;2023-03-23T08:20:38;5.00;;;2.60;;
8665;SDS011;4370;48.916;8.380;2023-03-23T08:23:05;2.97;;;2.40;;
8665;SDS011;4370;48.916;8.380;2023-03-23T08:25:32;5.97;;;2.57;;
8665;SDS011;4370;48.916;8.380;2023-03-23T08:27:58;3.40;;;2.33;;
8665;SDS011;4370;48.916;8.380;2023-03-23T08:30:26;3.63;;;2.30;;
8665;SDS011;4370;48.916;8.380;2023-03-23T08:32:54;4.30;;;2.23;;
8665;SDS011;4370;48.916;8.380;2023-03-23T08:35:21;4.33;;;2.27;;
8665;SDS011;4370;48.916;8.380;2023-03-23T08:37:47;2.90;;;2.20;;
8665;SDS011;4370;48.916;8.380;2023-03-23T08:40:17;3.57;;;2.70;;
8665;SDS011;4370;48.916;8.380;2023-03-23T08:42:45;3.77;;;2.30;;
8665;SDS011;4370;48.916;8.380;2023-03-23T08:45:13;3.13;;;1.97;;
8665;SDS011;4370;48.916;8.380;2023-03-23T08:47:39;4.27;;;2.40;;
8665;SDS011;4370;48.916;8.380;2023-03-23T08:50:06;4.87;;;2.63;;
8665;SDS011;4370;48.916;8.380;2023-03-23T08:52:32;3.53;;;1.83;;
8665;SDS011;4370;48.916;8.380;2023-03-23T08:54:58;2.47;;;2.00;;
8665;SDS011;4370;48.916;8.380;2023-03-23T08:57:25;2.60;;;1.87;;
8665;SDS011;4370;48.916;8.380;2023-03-23T08:59:51;5.57;;;2.40;;
8665;SDS011;4370;48.916;8.380;2023-03-23T09:02:19;2.73;;;1.90;;
8665;SDS011;4370;48.916;8.380;2023-03-23T09:04:45;3.20;;;1.57;;
8665;SDS011;4370;48.916;8.380;2023-03-23T09:07:11;3.90;;;2.00;;
8665;SDS011;4370;48.916;8.380;2023-03-23T09:09:39;2.63;;;1.70;;
8665;SDS011;4370;48.916;8.380;2023-03-23T09:12:08;3.67;;;1.93;;
8665;SDS011;4370;48.916;8.380;2023-03-23T09:14:34;4.40;;;2.07;;
8665;SDS011;4370;48.916;8.380;2023-03-23T09:17:01;4.13;;;1.90;;
8665;SDS011;4370;48.916;8.380;2023-03-23T09:19:28;2.73;;;1.60;;
8665;SDS011;4370;48.916;8.380;2023-03-23T09:21:54;2.73;;;1.80;;
8665;SDS011;4370;48.916;8.380;2023-03-23T09:24:20;2.50;;;1.73;;
8665;SDS011;4370;48.916;8.380;2023-03-23T09:26:45;2.33;;;1.70;;
8665;SDS011;4370;48.916;8.380;2023-03-23T09:29:12;4.63;;;1.50;;
8665;SDS011;4370;48.916;8.380;2023-03-23T09:31:39;2.43;;;1.70;;
8665;SDS011;4370;48.916;8.380;2023-03-23T09:34:08;3.53;;;1.70;;
8665;SDS011;4370;48.916;8.380;2023-03-23T09:36:37;3.87;;;1.40;;
8665;SDS011;4370;48.916;8.380;2023-03-23T09:39:04;2.30;;;1.37;;
8665;SDS011;4370;48.916;8.380;2023-03-23T09:41:42;3.60;;;1.50;;
8665;SDS011;4370;48.916;8.380;2023-03-23T09:49:45;3.27;;;1.53;;
8665;SDS011;4370;48.916;8.380;2023-03-23T09:52:17;1.53;;;1.43;;
8665;SDS011;4370;48.916;8.380;2023-03-23T09:54:47;1.60;;;1.40;;
8665;SDS011;4370;48.916;8.380;2023-03-23T09:59:53;2.23;;;1.60;;
8665;SDS011;4370;48.916;8.380;2023-03-23T10:02:28;2.20;;;1.40;;
8665;SDS011;4370;48.916;8.380;2023-03-23T10:04:56;1.63;;;1.30;;
8665;SDS011;4370;48.916;8.380;2023-03-23T10:07:27;3.73;;;1.30;;
8665;SDS011;4370;48.916;8.380;2023-03-23T10:09:56;1.97;;;1.30;;
8665;SDS011;4370;48.916;8.380;2023-03-23T10:17:50;3.40;;;1.60;;
8665;SDS011;4370;48.916;8.380;2023-03-23T10:20:28;2.43;;;1.70;;
8665;SDS011;4370;48.916;8.380;2023-03-23T10:25:37;2.23;;;1.70;;
8665;SDS011;4370;48.916;8.380;2023-03-23T10:28:11;1.97;;;1.50;;
8665;SDS011;4370;48.916;8.380;2023-03-23T10:30:42;3.37;;;1.70;;
8665;SDS011;4370;48.916;8.380;2023-03-23T10:33:14;2.63;;;1.90;;
8665;SDS011;4370;48.916;8.380;2023-03-23T10:35:48;2.23;;;1.70;;
8665;SDS011;4370;48.916;8.380;2023-03-23T10:38:21;2.33;;;1.60;;
8665;SDS011;4370;48.916;8.380;2023-03-23T10:40:53;3.27;;;1.80;;
8665;SDS011;4370;48.916;8.380;2023-03-23T10:43:23;2.70;;;1.90;;
8665;SDS011;4370;48.916;8.380;2023-03-23T10:46:34;2.90;;;1.80;;
8665;SDS011;4370;48.916;8.380;2023-03-23T10:48:47;3.10;;;1.60;;
8665;SDS011;4370;48.916;8.380;2023-03-23T10:51:14;3.00;;;1.80;;
8665;SDS011;4370;48.916;8.380;2023-03-23T10:53:44;2.50;;;1.87;;
8665;SDS011;4370;48.916;8.380;2023-03-23T10:56:22;1.70;;;1.60;;
8665;SDS011;4370;48.916;8.380;2023-03-23T10:58:48;1.93;;;1.73;;
8665;SDS011;4370;48.916;8.380;2023-03-23T11:01:14;3.03;;;1.90;;
8665;SDS011;4370;48.916;8.380;2023-03-23T11:03:44;10.23;;;2.90;;
8665;SDS011;4370;48.916;8.380;2023-03-23T11:06:20;8.83;;;2.53;;
8665;SDS011;4370;48.916;8.380;2023-03-23T11:08:53;3.03;;;2.17;;
8665;SDS011;4370;48.916;8.380;2023-03-23T11:11:25;4.30;;;1.80;;
8665;SDS011;4370;48.916;8.380;2023-03-23T11:13:57;2.30;;;2.00;;
8665;SDS011;4370;48.916;8.380;2023-03-23T11:16:32;1.93;;;1.67;;
8665;SDS011;4370;48.916;8.380;2023-03-23T11:19:00;2.03;;;1.70;;
8665;SDS011;4370;48.916;8.380;2023-03-23T11:21:38;2.93;;;1.80;;
8665;SDS011;4370;48.916;8.380;2023-03-23T11:24:04;3.90;;;1.87;;
8665;SDS011;4370;48.916;8.380;2023-03-23T11:26:31;2.10;;;1.60;;
8665;SDS011;4370;48.916;8.380;2023-03-23T11:29:03;2.90;;;2.20;;
8665;SDS011;4370;48.916;8.380;2023-03-23T11:31:30;2.37;;;1.77;;
8665;SDS011;4370;48.916;8.380;2023-03-23T11:34:02;4.60;;;2.30;;
8665;SDS011;4370;48.916;8.380;2023-03-23T11:36:30;11.67;;;2.40;;
8665;SDS011;4370;48.916;8.380;2023-03-23T11:38:58;6.00;;;2.50;;
8665;SDS011;4370;48.916;8.380;2023-03-23T11:41:24;3.07;;;2.03;;
8665;SDS011;4370;48.916;8.380;2023-03-23T11:43:54;4.40;;;2.10;;
8665;SDS011;4370;48.916;8.380;2023-03-23T11:49:13;3.93;;;2.43;;
8665;SDS011;4370;48.916;8.380;2023-03-23T11:51:47;3.37;;;2.63;;
8665;SDS011;4370;48.916;8.380;2023-03-23T11:56:42;3.17;;;2.30;;
8665;SDS011;4370;48.916;8.380;2023-03-23T11:59:11;2.97;;;2.27;;
8665;SDS011;4370;48.916;8.380;2023-03-23T12:01:57;2.33;;;1.93;;
8665;SDS011;4370;48.916;8.380;2023-03-23T12:07:30;2.57;;;2.30;;
8665;SDS011;4370;48.916;8.380;2023-03-23T12:16:00;2.70;;;2.40;;
8665;SDS011;4370;48.916;8.380;2023-03-23T12:21:06;2.93;;;2.20;;
8665;SDS011;4370;48.916;8.380;2023-03-23T12:28:42;2.97;;;2.00;;
8665;SDS011;4370;48.916;8.380;2023-03-23T12:33:48;2.17;;;1.97;;
8665;SDS011;4370;48.916;8.380;2023-03-23T12:36:24;6.07;;;3.20;;
8665;SDS011;4370;48.916;8.380;2023-03-23T12:41:42;2.97;;;2.03;;
8665;SDS011;4370;48.916;8.380;2023-03-23T12:44:11;2.43;;;2.07;;
8665;SDS011;4370;48.916;8.380;2023-03-23T12:49:53;3.73;;;2.33;;
8665;SDS011;4370;48.916;8.380;2023-03-23T12:52:25;3.30;;;2.07;;
8665;SDS011;4370;48.916;8.380;2023-03-23T12:55:01;3.07;;;2.10;;
8665;SDS011;4370;48.916;8.380;2023-03-23T12:57:33;2.33;;;2.13;;
8665;SDS011;4370;48.916;8.380;2023-03-23T13:00:06;2.10;;;1.90;;
8665;SDS011;4370;48.916;8.380;2023-03-23T13:08:15;3.10;;;1.70;;
8665;SDS011;4370;48.916;8.380;2023-03-23T13:10:48;2.50;;;1.90;;
8665;SDS011;4370;48.916;8.380;2023-03-23T13:13:25;3.40;;;2.30;;
8665;SDS011;4370;48.916;8.380;2023-03-23T13:16:07;2.83;;;2.30;;
8665;SDS011;4370;48.916;8.380;2023-03-23T13:18:56;3.30;;;2.10;;
8665;SDS011;4370;48.916;8.380;2023-03-23T13:21:38;2.73;;;1.77;;
8665;SDS011;4370;48.916;8.380;2023-03-23T13:24:09;2.43;;;2.23;;
8665;SDS011;4370;48.916;8.380;2023-03-23T13:26:40;5.03;;;2.17;;
8665;SDS011;4370;48.916;8.380;2023-03-23T13:29:13;3.70;;;2.20;;
8665;SDS011;4370;48.916;8.380;2023-03-23T13:31:43;3.13;;;2.13;;
8665;SDS011;4370;48.916;8.380;2023-03-23T13:36:56;5.93;;;2.80;;
8665;SDS011;4370;48.916;8.380;2023-03-23T13:39:32;4.10;;;2.30;;
8665;SDS011;4370;48.916;8.380;2023-03-23T13:42:03;4.07;;;2.80;;
8665;SDS011;4370;48.916;8.380;2023-03-23T13:50:03;3.23;;;2.47;;
8665;SDS011;4370;48.916;8.380;2023-03-23T14:00:26;4.27;;;1.90;;
8665;SDS011;4370;48.916;8.380;2023-03-23T14:02:58;2.57;;;2.10;;
8665;SDS011;4370;48.916;8.380;2023-03-23T14:05:30;4.70;;;2.40;;
8665;SDS011;4370;48.916;8.380;2023-03-23T14:10:55;3.33;;;2.40;;
8665;SDS011;4370;48.916;8.380;2023-03-23T14:13:31;3.80;;;2.60;;
8665;SDS011;4370;48.916;8.380;2023-03-23T14:16:05;4.07;;;2.43;;
8665;SDS011;4370;48.916;8.380;2023-03-23T14:18:41;6.50;;;2.50;;
8665;SDS011;4370;48.916;8.380;2023-03-23T14:21:16;5.63;;;2.60;;
8665;SDS011;4370;48.916;8.380;2023-03-23T14:23:42;2.83;;;2.23;;
8665;SDS011;4370;48.916;8.380;2023-03-23T14:26:15;5.20;;;2.60;;
8665;SDS011;4370;48.916;8.380;2023-03-23T14:28:42;5.30;;;3.03;;
8665;SDS011;4370;48.916;8.380;2023-03-23T14:31:31;3.17;;;2.60;;
8665;SDS011;4370;48.916;8.380;2023-03-23T14:33:56;3.53;;;2.20;;
8665;SDS011;4370;48.916;8.380;2023-03-23T14:36:27;2.70;;;2.33;;
8665;SDS011;4370;48.916;8.380;2023-03-23T14:38:56;4.23;;;2.47;;
8665;SDS011;4370;48.916;8.380;2023-03-23T14:41:22;3.07;;;2.00;;
8665;SDS011;4370;48.916;8.380;2023-03-23T14:43:49;3.73;;;2.23;;
8665;SDS011;4370;48.916;8.380;2023-03-23T14:46:15;2.57;;;2.17;;
8665;SDS011;4370;48.916;8.380;2023-03-23T14:48:42;5.37;;;2.20;;
8665;SDS011;4370;48.916;8.380;2023-03-23T14:51:14;2.73;;;2.23;;
8665;SDS011;4370;48.916;8.380;2023-03-23T14:53:43;2.63;;;2.20;;
8665;SDS011;4370;48.916;8.380;2023-03-23T14:56:13;2.97;;;2.40;;
8665;SDS011;4370;48.916;8.380;2023-03-23T14:58:44;3.43;;;2.30;;
8665;SDS011;4370;48.916;8.380;2023-03-23T15:01:18;2.50;;;2.20;;
8665;SDS011;4370;48.916;8.380;2023-03-23T15:06:43;4.83;;;2.50;;
8665;SDS011;4370;48.916;8.380;2023-03-23T15:09:16;2.63;;;2.30;;
8665;SDS011;4370;48.916;8.380;2023-03-23T15:11:49;3.17;;;2.47;;
8665;SDS011;4370;48.916;8.380;2023-03-23T15:14:23;3.27;;;2.47;;
8665;SDS011;4370;48.916;8.380;2023-03-23T15:16:54;2.70;;;2.40;;
8665;SDS011;4370;48.916;8.380;2023-03-23T15:19:23;2.30;;;2.10;;
8665;SDS011;4370;48.916;8.380;2023-03-23T15:21:54;3.27;;;2.30;;
8665;SDS011;4370;48.916;8.380;2023-03-23T15:24:33;3.10;;;2.43;;
8665;SDS011;4370;48.916;8.380;2023-03-23T15:27:03;3.33;;;2.10;;
8665;SDS011;4370;48.916;8.380;2023-03-23T15:29:45;2.97;;;2.30;;
8665;SDS011;4370;48.916;8.380;2023-03-23T15:32:11;2.57;;;1.90;;
8665;SDS011;4370;48.916;8.380;2023-03-23T15:34:37;2.60;;;2.10;;
8665;SDS011;4370;48.916;8.380;2023-03-23T15:37:17;2.20;;;2.00;;
8665;SDS011;4370;48.916;8.380;2023-03-23T15:39:44;4.63;;;2.10;;
8665;SDS011;4370;48.916;8.380;2023-03-23T15:42:27;2.90;;;2.17;;
8665;SDS011;4370;48.916;8.380;2023-03-23T15:45:05;2.20;;;1.90;;
8665;SDS011;4370;48.916;8.380;2023-03-23T15:47:51;2.50;;;2.30;;
8665;SDS011;4370;48.916;8.380;2023-03-23T15:50:18;3.00;;;2.30;;
8665;SDS011;4370;48.916;8.380;2023-03-23T15:52:50;2.80;;;2.30;;
8665;SDS011;4370;48.916;8.380;2023-03-23T15:57:42;2.07;;;1.90;;
8665;SDS011;4370;48.916;8.380;2023-03-23T16:00:09;4.00;;;2.20;;
8665;SDS011;4370;48.916;8.380;2023-03-23T16:02:36;4.23;;;2.40;;
8665;SDS011;4370;48.916;8.380;2023-03-23T16:05:02;4.20;;;2.00;;
8665;SDS011;4370;48.916;8.380;2023-03-23T16:07:28;6.07;;;2.60;;
8665;SDS011;4370;48.916;8.380;2023-03-23T16:09:54;2.97;;;2.10;;
8665;SDS011;4370;48.916;8.380;2023-03-23T16:12:19;3.40;;;1.90;;
8665;SDS011;4370;48.916;8.380;2023-03-23T16:14:45;3.93;;;2.50;;
8665;SDS011;4370;48.916;8.380;2023-03-23T16:17:13;2.60;;;2.27;;
8665;SDS011;4370;48.916;8.380;2023-03-23T16:19:41;2.63;;;2.20;;
8665;SDS011;4370;48.916;8.380;2023-03-23T16:22:08;3.23;;;2.33;;
8665;SDS011;4370;48.916;8.380;2023-03-23T16:24:33;3.27;;;2.20;;
8665;SDS011;4370;48.916;8.380;2023-03-23T16:26:59;2.83;;;2.23;;
8665;SDS011;4370;48.916;8.380;2023-03-23T16:29:25;2.87;;;2.57;;
8665;SDS011;4370;48.916;8.380;2023-03-23T16:31:51;2.80;;;2.23;;
8665;SDS011;4370;48.916;8.380;2023-03-23T16:34:17;3.90;;;2.60;;
8665;SDS011;4370;48.916;8.380;2023-03-23T16:36:43;4.40;;;2.40;;
8665;SDS011;4370;48.916;8.380;2023-03-23T16:39:12;5.27;;;3.10;;
8665;SDS011;4370;48.916;8.380;2023-03-23T16:41:39;5.80;;;2.93;;
8665;SDS011;4370;48.916;8.380;2023-03-23T16:44:05;3.97;;;3.20;;
8665;SDS011;4370;48.916;8.380;2023-03-23T16:46:31;5.70;;;3.40;;
8665;SDS011;4370;48.916;8.380;2023-03-23T16:48:57;5.10;;;3.00;;
8665;SDS011;4370;48.916;8.380;2023-03-23T16:51:23;3.80;;;2.90;;
8665;SDS011;4370;48.916;8.380;2023-03-23T16:53:49;6.30;;;3.33;;
8665;SDS011;4370;48.916;8.380;2023-03-23T16:56:15;7.00;;;3.57;;
8665;SDS011;4370;48.916;8.380;2023-03-23T16:58:41;5.97;;;3.50;;
8665;SDS011;4370;48.916;8.380;2023-03-23T17:01:07;4.70;;;3.40;;
8665;SDS011;4370;48.916;8.380;2023-03-23T17:03:33;4.50;;;3.20;;